New Durham, New Hampshire
Current Conditions -  °F | °C
As of 11:15 AM on Wednesday 28 Jan 2015 (Local Time) from KLCI Reporting Station
Broken Clouds Broken Clouds  
Wind Chill:   Ceiling: 7000
Heat Index: 19°   Visibility: 10mi
Dew Point:   Wind: 10mph
Humidity: 49%   Direction: 280°W
Pressure: 29.92"   Gusts: 16mph
Location:  43.44°N, 71.17°W
Report Text: KLCI 281615Z AUTO 28009G14KT 10SM BKN070 M07/M16 A2992 RMK AO1
Loading
Personal Weather Stations






























Interactive Weather Map New forecast layout! Learn more

10-Day Weather Forecast

Advertisements
Track Severe Weather on mobile